Time;durP1;ratioP1;P1;durP2;ratioP2;P2;SDS_P1;SDS_P2;PMS_P1;PMS_P2;Temp;Humidity;BMP_temperature;BMP_pressure;BME280_temperature;BME280_humidity;BME280_pressure;Samples;Min_cycle;Max_cycle;Signal;HPM_P1;HPM_P2
2023/03/07 00:01:04;;;;;;;0.93;0.93;;;-9.80;99.90;;;;;;5074713;28;20227;-66
2023/03/07 00:03:30;;;;;;;0.90;0.90;;;-9.80;99.90;;;;;;5056379;28;20282;-67
2023/03/07 00:06:10;;;;;;;1.10;1.10;;;-9.90;99.90;;;;;;5074724;28;20220;-66
2023/03/07 00:08:36;;;;;;;0.80;0.80;;;-10.00;99.90;;;;;;5074420;28;20276;-66
2023/03/07 00:11:05;;;;;;;0.90;0.90;;;-10.00;99.90;;;;;;5074576;28;20220;-67
2023/03/07 00:13:32;;;;;;;0.90;0.90;;;-10.00;99.90;;;;;;5074176;28;20227;-67
2023/03/07 00:16:06;;;;;;;0.97;0.97;;;-10.10;99.90;;;;;;5056450;28;20204;-67
2023/03/07 00:18:32;;;;;;;0.93;0.93;;;-10.10;99.90;;;;;;5056327;28;20557;-67
2023/03/07 00:21:04;;;;;;;0.90;0.90;;;-10.10;99.90;;;;;;5074135;28;20197;-67
2023/03/07 00:23:31;;;;;;;1.00;1.00;;;-10.10;99.90;;;;;;5070506;28;20246;-68
2023/03/07 00:26:03;;;;;;;0.90;0.90;;;-10.10;99.90;;;;;;5094789;28;20199;-67
2023/03/07 00:28:29;;;;;;;0.90;0.90;;;-10.10;99.90;;;;;;5075851;28;20200;-67
2023/03/07 00:30:58;;;;;;;0.90;0.90;;;-10.10;99.90;;;;;;5094421;28;20200;-67
2023/03/07 00:33:24;;;;;;;0.87;0.87;;;-10.20;99.90;;;;;;5065871;28;20233;-66
2023/03/07 00:35:57;;;;;;;0.90;0.90;;;-10.20;99.90;;;;;;5056160;28;20221;-67
2023/03/07 00:38:24;;;;;;;0.90;0.90;;;-10.30;99.90;;;;;;5073986;28;20181;-67
2023/03/07 00:41:08;;;;;;;0.90;0.90;;;-10.30;99.90;;;;;;5074034;28;20216;-66
2023/03/07 00:43:35;;;;;;;0.90;0.90;;;-10.30;99.90;;;;;;5073886;28;20199;-66
2023/03/07 00:46:01;;;;;;;0.90;0.90;;;-10.30;99.90;;;;;;5074077;28;20192;-66
2023/03/07 00:48:28;;;;;;;0.90;0.90;;;-10.30;99.90;;;;;;5073650;28;20535;-66
2023/03/07 00:50:54;;;;;;;0.80;0.80;;;-10.30;99.90;;;;;;5073738;28;20295;-66
2023/03/07 00:53:21;;;;;;;0.90;0.90;;;-10.40;99.90;;;;;;5073706;28;20189;-67
2023/03/07 00:56:05;;;;;;;0.90;0.90;;;-10.40;99.90;;;;;;5073753;28;20213;-67
2023/03/07 00:58:33;;;;;;;0.90;0.90;;;-10.40;99.90;;;;;;5073515;28;20619;-67
2023/03/07 01:01:00;;;;;;;0.70;0.70;;;-10.40;99.90;;;;;;5055643;28;20193;-67
2023/03/07 01:03:26;;;;;;;0.90;0.90;;;-10.40;99.90;;;;;;5051773;28;20333;-67
2023/03/07 01:05:53;;;;;;;0.80;0.80;;;-10.40;99.90;;;;;;5052271;28;20205;-67
2023/03/07 01:08:20;;;;;;;0.90;0.90;;;-10.40;99.90;;;;;;5053457;28;20193;-67
2023/03/07 01:10:50;;;;;;;0.90;0.90;;;-10.50;99.90;;;;;;5033974;28;20198;-67
2023/03/07 01:13:17;;;;;;;0.90;0.90;;;-10.40;99.90;;;;;;5033533;28;20206;-67
2023/03/07 01:15:43;;;;;;;0.90;0.90;;;-10.40;99.90;;;;;;5033342;28;20680;-67
2023/03/07 01:18:09;;;;;;;0.87;0.87;;;-10.40;99.90;;;;;;5033504;28;20213;-67
2023/03/07 01:20:37;;;;;;;1.00;1.00;;;-10.40;99.90;;;;;;5040618;28;20216;-67
2023/03/07 01:23:03;;;;;;;1.00;1.00;;;-10.40;99.90;;;;;;5052386;28;20194;-67
2023/03/07 01:25:29;;;;;;;0.90;0.90;;;-10.40;99.90;;;;;;5033078;28;20204;-67
2023/03/07 01:27:55;;;;;;;0.90;0.90;;;-10.40;99.90;;;;;;5031856;28;20351;-66
2023/03/07 01:30:22;;;;;;;0.90;0.90;;;-10.40;99.90;;;;;;5032861;28;20328;-67
2023/03/07 01:32:57;;;;;;;0.97;0.97;;;-10.40;99.90;;;;;;5032426;28;20252;-67
2023/03/07 01:35:23;;;;;;;0.90;0.90;;;-10.40;99.90;;;;;;5031582;28;20331;-67
2023/03/07 01:37:50;;;;;;;0.90;0.90;;;-10.30;99.90;;;;;;5033084;28;20537;-66
2023/03/07 01:40:17;;;;;;;0.90;0.90;;;-10.40;99.90;;;;;;5031844;28;20190;-66
2023/03/07 01:42:43;;;;;;;1.00;1.00;;;-10.40;99.90;;;;;;5032793;28;20194;-66
2023/03/07 01:45:12;;;;;;;0.80;0.80;;;-10.40;99.90;;;;;;5032990;28;20288;-67
2023/03/07 01:47:38;;;;;;;0.93;0.93;;;-10.40;99.90;;;;;;5032618;28;20232;-67
2023/03/07 01:50:12;;;;;;;1.00;1.00;;;-10.40;99.90;;;;;;5032865;28;20711;-66
2023/03/07 01:52:44;;;;;;;0.90;0.90;;;-10.40;99.90;;;;;;5032531;28;20218;-67
2023/03/07 01:55:15;;;;;;;0.80;0.80;;;-10.50;99.90;;;;;;5032755;28;20200;-66
2023/03/07 01:57:43;;;;;;;0.90;0.90;;;-10.50;99.90;;;;;;5031254;28;20265;-66
2023/03/07 02:00:18;;;;;;;0.93;0.93;;;-10.50;99.90;;;;;;5032735;28;20268;-66
2023/03/07 02:02:53;;;;;;;1.00;1.00;;;-10.60;99.90;;;;;;5035638;28;20241;-71
2023/03/07 02:05:24;;;;;;;1.00;1.00;;;-10.60;99.90;;;;;;5097900;23;20227;-81
2023/03/07 02:07:51;;;;;;;1.17;1.10;;;-10.60;99.90;;;;;;5091456;28;20673;-81
2023/03/07 02:10:20;;;;;;;0.90;0.90;;;-10.60;99.90;;;;;;5091433;28;20219;-79
2023/03/07 02:12:46;;;;;;;0.90;0.90;;;-10.70;99.90;;;;;;5091250;28;20299;-79
2023/03/07 02:15:13;;;;;;;1.00;1.00;;;-10.70;99.90;;;;;;5092482;28;20192;-79
2023/03/07 02:17:41;;;;;;;0.80;0.80;;;-10.70;99.90;;;;;;5090998;28;20287;-79
2023/03/07 02:20:31;;;;;;;0.90;0.90;;;-10.70;99.90;;;;;;5092566;28;20184;-79
2023/03/07 02:22:57;;;;;;;0.80;0.80;;;-10.70;99.90;;;;;;5091216;28;20270;-79
2023/03/07 02:25:35;;;;;;;0.90;0.90;;;-10.70;99.90;;;;;;5091972;28;20241;-79
2023/03/07 02:28:03;;;;;;;0.80;0.80;;;-10.80;99.90;;;;;;5092490;28;20196;-79
2023/03/07 02:30:29;;;;;;;0.90;0.90;;;-10.80;99.90;;;;;;5090950;28;20203;-79
2023/03/07 02:32:55;;;;;;;1.00;1.00;;;-10.80;99.90;;;;;;5092357;28;20204;-79
2023/03/07 02:35:23;;;;;;;0.80;0.80;;;-10.80;99.90;;;;;;5092544;28;20671;-81
2023/03/07 02:37:54;;;;;;;0.90;0.90;;;-10.90;99.90;;;;;;5091083;28;20197;-81
2023/03/07 02:40:22;;;;;;;0.90;0.90;;;-10.80;99.90;;;;;;5092328;28;20192;-81
2023/03/07 02:42:49;;;;;;;0.90;0.90;;;-10.90;99.90;;;;;;5093035;28;20689;-81
2023/03/07 02:45:17;;;;;;;0.90;0.90;;;-10.90;99.90;;;;;;5096475;28;20198;-78
2023/03/07 02:47:44;;;;;;;0.90;0.90;;;-10.90;99.90;;;;;;5096182;28;20270;-81
2023/03/07 02:50:11;;;;;;;1.00;1.00;;;-11.00;99.90;;;;;;5096409;28;20234;-79
2023/03/07 02:52:36;;;;;;;0.90;0.90;;;-11.00;99.90;;;;;;5094819;28;20235;-81
2023/03/07 02:55:03;;;;;;;0.90;0.90;;;-11.00;99.90;;;;;;5095025;28;20188;-79
2023/03/07 02:57:28;;;;;;;0.90;0.90;;;-11.00;99.90;;;;;;5094429;28;20200;-79
2023/03/07 02:59:54;;;;;;;0.80;0.80;;;-11.00;99.90;;;;;;5094952;28;20203;-79
2023/03/07 03:02:20;;;;;;;0.90;0.90;;;-10.90;99.90;;;;;;5093566;28;20196;-78
2023/03/07 03:04:46;;;;;;;0.90;0.90;;;-11.00;99.90;;;;;;5095994;28;20220;-81
2023/03/07 03:07:11;;;;;;;0.83;0.83;;;-11.00;99.90;;;;;;5096147;28;20204;-79
2023/03/07 03:09:37;;;;;;;0.90;0.90;;;-11.00;99.90;;;;;;5095892;28;20280;-79
2023/03/07 03:12:03;;;;;;;0.90;0.90;;;-11.00;99.90;;;;;;5095935;28;20243;-79
2023/03/07 03:14:29;;;;;;;0.83;0.83;;;-11.00;99.90;;;;;;5094501;28;20690;-78
2023/03/07 03:16:55;;;;;;;0.90;0.90;;;-11.00;99.90;;;;;;5102668;28;20282;-78
2023/03/07 03:19:21;;;;;;;0.80;0.80;;;-11.00;99.90;;;;;;5116084;27;20657;-79
2023/03/07 03:21:47;;;;;;;0.90;0.90;;;-11.00;99.90;;;;;;5114929;28;20200;-79
2023/03/07 03:24:13;;;;;;;1.00;1.00;;;-10.90;99.90;;;;;;5105666;28;20592;-79
2023/03/07 03:26:39;;;;;;;0.90;0.90;;;-10.90;99.90;;;;;;5095379;28;20255;-81
2023/03/07 03:29:05;;;;;;;0.90;0.90;;;-10.90;99.90;;;;;;5094394;28;20292;-79
2023/03/07 03:31:32;;;;;;;0.90;0.90;;;-10.90;99.90;;;;;;5094343;28;20200;-79
2023/03/07 03:33:58;;;;;;;0.80;0.80;;;-10.90;99.90;;;;;;5094340;28;20214;-79
2023/03/07 03:36:25;;;;;;;0.90;0.90;;;-10.90;99.90;;;;;;5095304;28;20188;-79
2023/03/07 03:38:52;;;;;;;2.03;1.87;;;-10.90;99.90;;;;;;5094323;28;20192;-79
2023/03/07 03:41:18;;;;;;;0.90;0.90;;;-10.90;99.90;;;;;;5094320;28;20727;-79
2023/03/07 03:43:44;;;;;;;0.80;0.80;;;-10.90;99.90;;;;;;5094701;28;20288;-79
2023/03/07 03:46:10;;;;;;;0.80;0.80;;;-10.90;99.90;;;;;;5095549;28;20267;-79
2023/03/07 03:48:36;;;;;;;0.93;0.93;;;-10.80;99.90;;;;;;5095215;28;20291;-79
2023/03/07 03:51:11;;;;;;;0.90;0.90;;;-10.80;99.90;;;;;;5095287;28;20196;-79
2023/03/07 03:53:38;;;;;;;0.90;0.90;;;-10.80;99.90;;;;;;5095043;28;20275;-79
2023/03/07 03:56:07;;;;;;;0.90;0.90;;;-10.70;99.90;;;;;;5094509;28;20185;-79
2023/03/07 03:58:33;;;;;;;0.90;0.90;;;-10.70;99.90;;;;;;5094690;28;20203;-79
2023/03/07 04:01:04;;;;;;;0.90;0.90;;;-10.70;99.90;;;;;;5094879;28;20227;-79
2023/03/07 04:03:41;;;;;;;0.90;0.90;;;-10.70;99.90;;;;;;5092627;28;20196;-79
2023/03/07 04:06:10;;;;;;;0.90;0.90;;;-10.70;99.90;;;;;;5093533;28;20753;-79
2023/03/07 04:08:37;;;;;;;0.90;0.90;;;-10.70;99.90;;;;;;5094775;28;20199;-79
2023/03/07 04:11:03;;;;;;;0.90;0.90;;;-10.70;99.90;;;;;;5094842;28;20188;-79
2023/03/07 04:13:30;;;;;;;0.90;0.90;;;-10.70;99.90;;;;;;5105480;28;20689;-79
2023/03/07 04:15:56;;;;;;;0.80;0.80;;;-10.70;99.90;;;;;;5115210;28;20189;-79
2023/03/07 04:18:23;;;;;;;0.90;0.90;;;-10.70;99.90;;;;;;5076226;28;20193;-79
2023/03/07 04:20:49;;;;;;;1.23;1.17;;;-10.70;99.90;;;;;;5074785;28;20197;-79
2023/03/07 04:23:17;;;;;;;0.80;0.80;;;-10.60;99.90;;;;;;5076739;28;20199;-79
2023/03/07 04:25:57;;;;;;;0.90;0.90;;;-10.60;99.90;;;;;;5093023;28;20685;-79
2023/03/07 04:28:25;;;;;;;0.90;0.90;;;-10.60;99.90;;;;;;5094352;28;20198;-79
2023/03/07 04:30:55;;;;;;;0.80;0.80;;;-10.60;99.90;;;;;;5093169;28;20686;-79
2023/03/07 04:33:21;;;;;;;0.83;0.83;;;-10.50;99.90;;;;;;5094224;28;20203;-79
2023/03/07 04:35:47;;;;;;;0.80;0.80;;;-10.50;99.90;;;;;;5094413;28;20592;-80
2023/03/07 04:38:14;;;;;;;0.90;0.90;;;-10.50;99.90;;;;;;5094360;28;20192;-79
2023/03/07 04:40:39;;;;;;;0.90;0.90;;;-10.50;99.90;;;;;;5094091;28;20647;-79
2023/03/07 04:43:05;;;;;;;0.80;0.80;;;-10.50;99.90;;;;;;5092950;28;20207;-79
2023/03/07 04:45:34;;;;;;;0.97;0.97;;;-10.50;99.90;;;;;;5094003;28;20196;-79
2023/03/07 04:48:00;;;;;;;0.80;0.80;;;-10.50;99.90;;;;;;5092820;28;20200;-79
2023/03/07 04:50:26;;;;;;;0.90;0.90;;;-10.50;99.90;;;;;;5093893;28;20257;-79
2023/03/07 04:52:52;;;;;;;0.90;0.90;;;-10.50;99.90;;;;;;5093943;28;20204;-79
2023/03/07 04:55:17;;;;;;;1.33;1.23;;;-10.50;99.90;;;;;;5092391;28;20204;-79
2023/03/07 04:57:43;;;;;;;0.90;0.90;;;-10.40;99.90;;;;;;5092463;28;20678;-79
2023/03/07 05:00:09;;;;;;;0.90;0.90;;;-10.40;99.90;;;;;;5092661;28;20671;-79
2023/03/07 05:02:36;;;;;;;0.90;0.90;;;-10.40;99.90;;;;;;5092145;28;20219;-79
2023/03/07 05:05:02;;;;;;;0.87;0.87;;;-10.40;99.90;;;;;;5093522;28;20721;-79
2023/03/07 05:07:31;;;;;;;0.80;0.80;;;-10.30;99.90;;;;;;5092579;28;20200;-79
2023/03/07 05:09:57;;;;;;;1.07;1.07;;;-10.30;99.90;;;;;;5106280;28;20203;-79
2023/03/07 05:12:24;;;;;;;1.00;1.00;;;-10.30;99.90;;;;;;5113894;28;20212;-79
2023/03/07 05:14:49;;;;;;;1.40;1.30;;;-10.20;99.90;;;;;;5130136;27;20192;-79
2023/03/07 05:17:15;;;;;;;0.80;0.80;;;-10.20;99.90;;;;;;5112737;28;20195;-79
2023/03/07 05:19:41;;;;;;;0.90;0.90;;;-10.20;99.90;;;;;;5113742;28;20742;-80
2023/03/07 05:22:07;;;;;;;0.80;0.80;;;-10.10;99.90;;;;;;5102516;28;20543;-79
2023/03/07 05:24:33;;;;;;;0.80;0.80;;;-10.10;99.90;;;;;;5088428;28;20200;-79
2023/03/07 05:27:05;;;;;;;0.90;0.90;;;-10.10;99.90;;;;;;5090984;27;20616;-72
2023/03/07 05:29:31;;;;;;;0.83;0.83;;;-10.00;99.90;;;;;;5090079;28;20598;-74
2023/03/07 05:31:57;;;;;;;0.90;0.90;;;-10.00;99.90;;;;;;5089406;28;20651;-74
2023/03/07 05:34:23;;;;;;;1.00;1.00;;;-9.90;99.90;;;;;;5090421;28;20192;-73
2023/03/07 05:36:49;;;;;;;0.90;0.90;;;-9.90;99.90;;;;;;5090162;28;20196;-73
2023/03/07 05:39:15;;;;;;;0.90;0.90;;;-9.80;99.90;;;;;;5090735;28;20257;-73
2023/03/07 05:41:41;;;;;;;0.90;0.90;;;-9.70;99.90;;;;;;5090319;28;20196;-72
2023/03/07 05:44:07;;;;;;;0.90;0.90;;;-9.60;99.90;;;;;;5090393;28;20195;-71
2023/03/07 05:46:32;;;;;;;1.87;1.77;;;-9.60;99.90;;;;;;5090160;28;20257;-72
2023/03/07 05:48:58;;;;;;;0.83;0.83;;;-9.60;99.90;;;;;;5090411;28;20267;-72
2023/03/07 05:51:24;;;;;;;0.90;0.90;;;-9.50;99.90;;;;;;5089280;28;20192;-72
2023/03/07 05:53:50;;;;;;;0.90;0.90;;;-9.50;99.90;;;;;;5090181;28;20665;-72
2023/03/07 05:56:16;;;;;;;0.90;0.90;;;-9.50;99.90;;;;;;5090380;28;20211;-73
2023/03/07 05:58:41;;;;;;;0.80;0.80;;;-9.50;99.90;;;;;;5089040;28;20667;-73
2023/03/07 06:01:07;;;;;;;0.90;0.90;;;-9.40;99.90;;;;;;5088749;28;20214;-72
2023/03/07 06:03:33;;;;;;;0.90;0.90;;;-9.30;99.90;;;;;;5088392;28;20229;-72
2023/03/07 06:05:59;;;;;;;0.80;0.80;;;-9.20;99.90;;;;;;5089670;28;20200;-72
2023/03/07 06:08:24;;;;;;;0.80;0.80;;;-9.20;99.90;;;;;;5087810;28;20207;-74
2023/03/07 06:10:53;;;;;;;0.90;0.90;;;-9.10;99.90;;;;;;5088557;28;20249;-74
2023/03/07 06:13:21;;;;;;;0.80;0.80;;;-9.10;99.90;;;;;;5089891;28;20309;-74
2023/03/07 06:15:52;;;;;;;0.90;0.90;;;-9.10;99.90;;;;;;5089741;28;20560;-72
2023/03/07 06:18:17;;;;;;;0.90;0.90;;;-9.00;99.90;;;;;;5089678;28;20667;-70
2023/03/07 06:20:43;;;;;;;0.90;0.90;;;-9.00;99.90;;;;;;5088358;28;20196;-72
2023/03/07 06:23:09;;;;;;;1.10;1.10;;;-8.90;99.90;;;;;;5087878;28;20254;-73
2023/03/07 06:25:36;;;;;;;0.87;0.87;;;-8.90;99.90;;;;;;5068749;28;20236;-73
2023/03/07 06:28:02;;;;;;;0.90;0.90;;;-8.80;99.90;;;;;;5069295;28;20217;-72
2023/03/07 06:30:28;;;;;;;0.90;0.90;;;-8.70;99.90;;;;;;5068900;28;20224;-73
2023/03/07 06:32:53;;;;;;;0.90;0.90;;;-8.70;99.90;;;;;;5069141;28;20189;-73
2023/03/07 06:35:19;;;;;;;0.90;0.90;;;-8.60;99.90;;;;;;5069031;28;20242;-72
2023/03/07 06:37:45;;;;;;;0.90;0.90;;;-8.60;99.90;;;;;;5058625;28;20667;-74
2023/03/07 06:40:12;;;;;;;0.90;0.90;;;-8.50;99.90;;;;;;5054566;28;20205;-74
2023/03/07 06:42:38;;;;;;;0.90;0.90;;;-8.50;99.90;;;;;;5055959;28;20194;-73
2023/03/07 06:45:04;;;;;;;0.80;0.80;;;-8.40;99.90;;;;;;5055971;28;20699;-73
2023/03/07 06:47:30;;;;;;;0.80;0.80;;;-8.40;99.90;;;;;;5067745;28;20221;-73
2023/03/07 06:49:56;;;;;;;0.90;0.90;;;-8.30;99.90;;;;;;5075509;28;20686;-73
2023/03/07 06:52:22;;;;;;;0.80;0.80;;;-8.30;99.90;;;;;;5073963;28;20215;-73
2023/03/07 06:54:48;;;;;;;0.90;0.90;;;-8.20;99.90;;;;;;5074181;28;20189;-73
2023/03/07 06:57:13;;;;;;;0.90;0.90;;;-8.20;99.90;;;;;;5074095;28;20224;-73
2023/03/07 06:59:42;;;;;;;0.90;0.90;;;-8.20;99.90;;;;;;5075174;28;20317;-74
2023/03/07 07:02:13;;;;;;;0.90;0.90;;;-8.20;99.90;;;;;;5075091;28;20205;-74
2023/03/07 07:04:38;;;;;;;0.80;0.80;;;-8.10;99.90;;;;;;5075269;28;20675;-72
2023/03/07 07:07:06;;;;;;;0.80;0.80;;;-8.10;99.90;;;;;;5075244;28;20211;-72
2023/03/07 07:09:32;;;;;;;0.90;0.90;;;-8.00;99.90;;;;;;5073716;28;20238;-73
2023/03/07 07:11:57;;;;;;;0.80;0.80;;;-8.00;99.90;;;;;;5073740;28;20280;-72
2023/03/07 07:14:23;;;;;;;0.90;0.90;;;-7.90;99.90;;;;;;5074410;28;20631;-73
2023/03/07 07:16:49;;;;;;;0.90;0.90;;;-7.80;99.90;;;;;;5074751;28;20189;-73
2023/03/07 07:19:15;;;;;;;0.90;0.90;;;-7.80;99.90;;;;;;5074874;28;20250;-73
2023/03/07 07:21:40;;;;;;;0.90;0.90;;;-7.70;99.90;;;;;;5073125;28;20291;-73
2023/03/07 07:24:08;;;;;;;1.00;1.00;;;-7.80;99.90;;;;;;5064995;28;20193;-74
2023/03/07 07:26:34;;;;;;;0.80;0.80;;;-7.80;99.90;;;;;;5054453;28;20229;-72
2023/03/07 07:29:00;;;;;;;0.80;0.80;;;-7.60;99.90;;;;;;5053035;28;20914;-73
2023/03/07 07:31:26;;;;;;;3.43;2.80;;;-7.60;99.90;;;;;;5054993;28;20686;-73
2023/03/07 07:33:51;;;;;;;0.90;0.90;;;-7.50;99.90;;;;;;5053622;28;20194;-73
2023/03/07 07:36:17;;;;;;;1.27;1.17;;;-7.50;99.90;;;;;;5053686;28;20202;-74
2023/03/07 07:38:43;;;;;;;0.90;0.90;;;-7.50;99.90;;;;;;5053585;28;20687;-73
2023/03/07 07:41:09;;;;;;;0.93;0.93;;;-7.40;99.90;;;;;;5054783;28;20556;-74
2023/03/07 07:43:34;;;;;;;0.90;0.90;;;-7.30;99.90;;;;;;5064439;28;20201;-74
2023/03/07 07:46:03;;;;;;;0.80;0.80;;;-7.30;99.90;;;;;;5074670;28;20888;-74
2023/03/07 07:48:30;;;;;;;0.90;0.90;;;-7.20;99.90;;;;;;5072306;28;20193;-73
2023/03/07 07:50:59;;;;;;;0.80;0.80;;;-7.20;99.90;;;;;;5073123;28;20196;-74
2023/03/07 07:53:25;;;;;;;2.50;2.07;;;-7.00;99.90;;;;;;5073076;28;20674;-73
2023/03/07 07:55:51;;;;;;;0.90;0.90;;;-7.00;99.90;;;;;;5074445;28;20197;-74
2023/03/07 07:58:17;;;;;;;0.80;0.80;;;-7.00;99.90;;;;;;5074373;28;20207;-74
2023/03/07 08:00:44;;;;;;;0.90;0.90;;;-6.90;99.90;;;;;;5073990;28;20247;-74
2023/03/07 08:03:10;;;;;;;1.03;1.03;;;-6.90;99.90;;;;;;5074108;28;20552;-73
2023/03/07 08:05:35;;;;;;;0.90;0.90;;;-6.90;99.90;;;;;;5072600;28;20307;-73
2023/03/07 08:08:02;;;;;;;1.10;1.10;;;-6.80;99.90;;;;;;5073595;28;20191;-74
2023/03/07 08:10:27;;;;;;;0.90;0.90;;;-6.70;99.90;;;;;;5072594;28;20287;-73
2023/03/07 08:12:53;;;;;;;0.80;0.80;;;-6.50;99.90;;;;;;5072833;28;20731;-73
2023/03/07 08:15:22;;;;;;;0.80;0.80;;;-6.50;99.90;;;;;;5072677;28;20228;-72
2023/03/07 08:17:50;;;;;;;0.83;0.83;;;-6.40;99.90;;;;;;5074052;28;20197;-73
2023/03/07 08:20:16;;;;;;;0.90;0.90;;;-6.30;99.90;;;;;;5074094;28;20560;-74
2023/03/07 08:22:45;;;;;;;0.90;0.90;;;-6.20;99.90;;;;;;5072554;28;20675;-73
2023/03/07 08:25:19;;;;;;;0.80;0.80;;;-6.10;99.90;;;;;;5055153;28;20256;-73
2023/03/07 08:27:45;;;;;;;0.90;0.90;;;-5.90;99.90;;;;;;5053800;28;20275;-74
2023/03/07 08:30:12;;;;;;;0.83;0.83;;;-5.90;99.90;;;;;;5053949;28;20220;-74
2023/03/07 08:32:38;;;;;;;0.83;0.83;;;-5.80;99.90;;;;;;5052242;28;20225;-74
2023/03/07 08:35:04;;;;;;;0.83;0.83;;;-5.70;99.90;;;;;;5052517;28;20225;-74
2023/03/07 08:37:29;;;;;;;0.80;0.80;;;-5.60;99.90;;;;;;5052111;28;20284;-76
2023/03/07 08:39:55;;;;;;;3.67;1.90;;;-5.50;99.90;;;;;;5065659;28;20791;-73
2023/03/07 08:42:21;;;;;;;0.80;0.80;;;-5.40;99.90;;;;;;5072106;28;20201;-75
2023/03/07 08:44:47;;;;;;;1.03;1.00;;;-5.30;99.90;;;;;;5073505;28;20678;-74
2023/03/07 08:47:12;;;;;;;0.90;0.90;;;-5.20;99.90;;;;;;5073663;28;20267;-75
2023/03/07 08:49:39;;;;;;;0.83;0.83;;;-5.10;99.90;;;;;;5072706;28;20197;-74
2023/03/07 08:52:05;;;;;;;0.90;0.90;;;-5.00;99.90;;;;;;5073339;28;20310;-74
2023/03/07 08:54:31;;;;;;;0.98;0.98;;;-5.00;99.90;;;;;;5073124;28;20287;-74
2023/03/07 08:56:58;;;;;;;0.80;0.80;;;-4.90;99.90;;;;;;5072020;28;20721;-74
2023/03/07 08:59:24;;;;;;;0.80;0.80;;;-4.80;99.90;;;;;;5072032;28;20201;-74
2023/03/07 09:01:49;;;;;;;0.83;0.83;;;-4.70;99.90;;;;;;5073060;28;20330;-75
2023/03/07 09:04:15;;;;;;;0.80;0.80;;;-4.70;99.90;;;;;;5072216;28;20193;-74
2023/03/07 09:06:41;;;;;;;0.90;0.90;;;-4.60;99.90;;;;;;5073086;28;20227;-75
2023/03/07 09:09:07;;;;;;;0.80;0.80;;;-4.50;99.90;;;;;;5071684;28;20195;-74
2023/03/07 09:11:32;;;;;;;0.73;0.73;;;-4.40;99.90;;;;;;5071180;28;20233;-74
2023/03/07 09:13:58;;;;;;;0.90;0.90;;;-4.30;99.90;;;;;;5073261;28;20203;-75
2023/03/07 09:16:24;;;;;;;0.70;0.70;;;-4.30;99.90;;;;;;5073066;28;20226;-75
2023/03/07 09:18:50;;;;;;;0.70;0.70;;;-4.30;99.90;;;;;;5071915;28;20226;-75
2023/03/07 09:21:16;;;;;;;1.03;1.03;;;-4.20;99.90;;;;;;5071725;28;20208;-74
2023/03/07 09:23:42;;;;;;;0.80;0.80;;;-4.10;99.90;;;;;;5067827;28;20201;-74
2023/03/07 09:26:09;;;;;;;0.90;0.90;;;-4.10;99.90;;;;;;5051096;28;20248;-74
2023/03/07 09:28:34;;;;;;;0.80;0.80;;;-4.00;99.90;;;;;;5052163;28;20656;-75
2023/03/07 09:31:09;;;;;;;0.73;0.73;;;-3.90;99.90;;;;;;5052532;28;20224;-75
2023/03/07 09:33:35;;;;;;;0.85;0.85;;;-3.80;99.90;;;;;;5052325;28;20606;-74
2023/03/07 09:36:09;;;;;;;0.90;0.90;;;-3.70;99.90;;;;;;5063232;28;20631;-75
2023/03/07 09:38:35;;;;;;;1.48;1.23;;;-3.60;99.90;;;;;;5071310;28;20722;-75
2023/03/07 09:41:16;;;;;;;0.70;0.70;;;-3.50;99.90;;;;;;5072565;28;20205;-74
2023/03/07 09:44:04;;;;;;;0.60;0.60;;;-3.50;99.90;;;;;;5072778;28;20197;-75
2023/03/07 09:46:56;;;;;;;0.67;0.67;;;-3.40;99.90;;;;;;5072848;28;20577;-75
2023/03/07 09:49:32;;;;;;;0.90;0.90;;;-3.30;99.90;;;;;;5072055;28;20227;-75
2023/03/07 09:51:59;;;;;;;0.70;0.70;;;-3.30;99.90;;;;;;5072138;28;20228;-75
2023/03/07 09:54:44;;;;;;;0.70;0.70;;;-3.10;99.90;;;;;;5072580;28;20197;-73
2023/03/07 09:57:25;;;;;;;0.70;0.70;;;-3.00;99.90;;;;;;5072077;28;20663;-74
2023/03/07 10:00:16;;;;;;;0.75;0.75;;;-3.00;99.90;;;;;;5070747;28;20267;-73
2023/03/07 10:02:57;;;;;;;0.63;0.63;;;-3.00;99.90;;;;;;5070716;28;20189;-75
2023/03/07 10:05:30;;;;;;;0.80;0.80;;;-2.90;99.90;;;;;;5072185;28;20260;-73
2023/03/07 10:07:57;;;;;;;0.70;0.70;;;-2.80;99.90;;;;;;5072558;28;20602;-74
2023/03/07 10:10:30;;;;;;;0.80;0.80;;;-2.70;99.90;;;;;;5072186;28;20197;-74
2023/03/07 10:13:11;;;;;;;0.70;0.70;;;-2.80;99.90;;;;;;5073240;28;20197;-74
2023/03/07 10:16:38;;;;;;;0.70;0.70;;;-2.60;99.90;;;;;;5074568;28;20258;-74
2023/03/07 10:19:23;;;;;;;0.90;0.90;;;-2.50;99.90;;;;;;5025984;28;20206;-74
2023/03/07 10:22:03;;;;;;;0.93;0.80;;;-2.40;99.90;;;;;;5034009;28;20217;-74
2023/03/07 10:24:56;;;;;;;0.80;0.80;;;-2.40;99.90;;;;;;5016855;28;20206;-74
2023/03/07 10:27:25;;;;;;;0.70;0.70;;;-2.40;99.90;;;;;;5033357;28;20250;-74
2023/03/07 10:29:53;;;;;;;0.73;0.73;;;-2.40;99.90;;;;;;5033915;28;20206;-74
2023/03/07 10:32:24;;;;;;;0.70;0.70;;;-2.30;99.90;;;;;;5033649;28;20727;-74
2023/03/07 10:35:01;;;;;;;0.80;0.80;;;-2.20;99.90;;;;;;5033870;28;20200;-74
2023/03/07 10:38:00;;;;;;;0.70;0.70;;;-2.10;99.90;;;;;;5033609;28;20232;-76
2023/03/07 10:40:33;;;;;;;0.63;0.63;;;-2.00;99.90;;;;;;5016933;28;20673;-75
2023/03/07 10:42:59;;;;;;;0.60;0.60;;;-1.90;99.90;;;;;;5033653;28;20226;-74
2023/03/07 10:45:29;;;;;;;0.65;0.65;;;-2.00;99.90;;;;;;5033258;28;20286;-74
2023/03/07 10:47:59;;;;;;;0.90;0.90;;;-2.00;99.90;;;;;;5033536;28;20210;-74
2023/03/07 10:50:37;;;;;;;0.60;0.60;;;-1.90;99.90;;;;;;5068465;28;20208;-73
2023/03/07 10:53:07;;;;;;;0.70;0.70;;;-1.90;99.90;;;;;;5074445;28;20189;-73
2023/03/07 10:55:43;;;;;;;0.70;0.70;;;-1.80;99.90;;;;;;5074373;28;20254;-74
2023/03/07 10:58:12;;;;;;;0.75;0.75;;;-1.80;99.90;;;;;;5074463;28;20192;-71
2023/03/07 11:00:38;;;;;;;0.60;0.60;;;-1.60;99.90;;;;;;5093552;28;20204;-73
2023/03/07 11:03:18;;;;;;;0.68;0.68;;;-1.70;99.90;;;;;;5095032;28;20192;-72
2023/03/07 11:05:47;;;;;;;0.70;0.70;;;-1.80;99.90;;;;;;5093665;28;20203;-71
2023/03/07 11:08:28;;;;;;;0.77;0.77;;;-1.80;99.90;;;;;;5095191;28;20712;-72
2023/03/07 11:10:54;;;;;;;0.80;0.80;;;-1.80;99.90;;;;;;5095311;28;20580;-70
2023/03/07 11:13:22;;;;;;;0.70;0.70;;;-1.80;99.90;;;;;;5095265;28;20260;-73
2023/03/07 11:15:48;;;;;;;0.65;0.65;;;-1.90;99.90;;;;;;5095397;28;20201;-72
2023/03/07 11:18:48;;;;;;;0.70;0.70;;;-1.90;99.90;;;;;;5094209;28;20305;-71
2023/03/07 11:21:32;;;;;;;0.70;0.70;;;-1.90;99.90;;;;;;5094221;28;20237;-73
2023/03/07 11:24:24;;;;;;;0.80;0.80;;;-1.80;99.90;;;;;;5081993;28;20221;-73
2023/03/07 11:26:57;;;;;;;0.60;0.60;;;-1.70;99.90;;;;;;5014254;28;20584;-71
2023/03/07 11:29:23;;;;;;;0.60;0.60;;;-1.60;99.90;;;;;;5032903;28;20205;-70
2023/03/07 11:32:21;;;;;;;0.65;0.65;;;-1.60;99.90;;;;;;5035020;28;20190;-71
2023/03/07 11:34:58;;;;;;;0.60;0.60;;;-1.60;99.90;;;;;;5030341;28;20668;-72
2023/03/07 11:37:36;;;;;;;0.60;0.60;;;-1.60;99.90;;;;;;5034584;28;20205;-71
2023/03/07 11:40:02;;;;;;;0.70;0.70;;;-1.70;99.90;;;;;;5034731;28;20261;-71
2023/03/07 11:42:33;;;;;;;0.60;0.60;;;-1.70;99.90;;;;;;5034532;28;20566;-71
2023/03/07 11:45:29;;;;;;;0.63;0.63;;;-1.80;99.90;;;;;;5034445;28;20201;-71
2023/03/07 11:48:23;;;;;;;0.82;0.82;;;-1.60;99.90;;;;;;5033054;28;20723;-71
2023/03/07 11:50:54;;;;;;;0.65;0.65;;;-1.60;99.90;;;;;;5034377;28;20212;-72
2023/03/07 11:53:34;;;;;;;0.80;0.80;;;-1.50;99.90;;;;;;5034259;28;20218;-72
2023/03/07 11:56:33;;;;;;;0.70;0.70;;;-1.50;99.90;;;;;;5043548;28;20335;-71
2023/03/07 11:59:39;;;;;;;0.60;0.60;;;-1.50;99.90;;;;;;5054404;28;20201;-72
2023/03/07 12:02:28;;;;;;;0.70;0.70;;;-1.40;99.90;;;;;;5053550;28;20210;-72
2023/03/07 12:05:15;;;;;;;0.80;0.80;;;-1.40;99.90;;;;;;5054069;28;20652;-72
2023/03/07 12:07:53;;;;;;;0.77;0.77;;;-1.30;99.90;;;;;;5054010;28;20255;-72
2023/03/07 12:10:18;;;;;;;0.60;0.60;;;-1.40;99.90;;;;;;5052571;28;20280;-71
2023/03/07 12:13:03;;;;;;;0.80;0.80;;;-1.40;99.90;;;;;;5053624;28;20280;-72
2023/03/07 12:15:58;;;;;;;0.80;0.80;;;-1.50;99.90;;;;;;5052658;28;20205;-72
2023/03/07 12:19:07;;;;;;;0.77;0.77;;;-1.50;99.90;;;;;;5050047;28;20217;-72
2023/03/07 12:21:52;;;;;;;0.70;0.70;;;-1.60;99.90;;;;;;5053995;28;20225;-71
2023/03/07 12:24:39;;;;;;;0.80;0.80;;;-1.60;99.90;;;;;;5040975;28;20605;-72
2023/03/07 12:27:10;;;;;;;0.70;0.70;;;-1.60;99.90;;;;;;5073464;28;20683;-73
2023/03/07 12:30:03;;;;;;;0.70;0.70;;;-1.50;99.90;;;;;;5072085;28;20330;-71
2023/03/07 12:32:32;;;;;;;0.70;0.70;;;-1.50;99.90;;;;;;5073534;28;20705;-72
2023/03/07 12:35:22;;;;;;;0.70;0.70;;;-1.50;99.90;;;;;;5073010;28;20193;-71
2023/03/07 12:38:23;;;;;;;0.70;0.70;;;-1.60;99.90;;;;;;5073408;28;20586;-72
2023/03/07 12:41:00;;;;;;;1.30;1.20;;;-1.50;99.90;;;;;;5073243;28;20204;-72
2023/03/07 12:44:02;;;;;;;0.70;0.70;;;-1.60;99.90;;;;;;5073163;28;20633;-72
2023/03/07 12:47:00;;;;;;;0.60;0.60;;;-1.60;99.90;;;;;;5063018;28;20683;-71
2023/03/07 12:49:52;;;;;;;0.60;0.60;;;-1.60;99.90;;;;;;5073444;28;20270;-72
2023/03/07 12:52:37;;;;;;;0.65;0.65;;;-1.70;99.90;;;;;;5073314;28;20679;-73
2023/03/07 12:55:14;;;;;;;0.60;0.60;;;-1.70;99.90;;;;;;5072050;28;20189;-71
2023/03/07 12:57:43;;;;;;;0.80;0.80;;;-1.70;99.90;;;;;;5072942;28;20226;-71
2023/03/07 13:00:15;;;;;;;0.68;0.68;;;-1.60;99.90;;;;;;5072862;28;20204;-71